Time;durP1;ratioP1;P1;durP2;ratioP2;P2;SDS_P1;SDS_P2;PMS_P1;PMS_P2;Temp;Humidity;BMP_temperature;BMP_pressure;BME280_temperature;BME280_humidity;BME280_pressure;Samples;Min_cycle;Max_cycle;Signal;HPM_P1;HPM_P2
2021/08/06 00:00:00;;;;;;;2.87;2.67;;;;;;;14.15;100.00;91907.92;1654044;82;21073;-76
2021/08/06 00:02:26;;;;;;;5.30;3.05;;;;;;;14.16;100.00;91895.77;1668640;83;21058;-76
2021/08/06 00:04:55;;;;;;;3.00;2.70;;;;;;;14.10;100.00;91890.74;1672558;84;21069;-76
2021/08/06 00:07:23;;;;;;;7.90;3.10;;;;;;;14.07;100.00;91891.06;1609615;83;21133;-77
2021/08/06 00:09:50;;;;;;;4.42;2.80;;;;;;;14.06;100.00;91890.89;1665369;82;21081;-76
2021/08/06 00:12:17;;;;;;;3.60;3.30;;;;;;;14.08;100.00;91887.11;1624184;83;21120;-77
2021/08/06 00:14:45;;;;;;;3.40;3.10;;;;;;;14.11;100.00;91884.69;1663155;82;21081;-77
2021/08/06 00:17:11;;;;;;;3.08;2.77;;;;;;;14.13;100.00;91874.80;1627059;83;21105;-78
2021/08/06 00:19:38;;;;;;;3.58;2.83;;;;;;;14.14;100.00;91875.56;1611022;85;21062;-78
2021/08/06 00:22:04;;;;;;;3.20;2.90;;;;;;;14.17;100.00;91886.34;1689601;82;21077;-77
2021/08/06 00:24:30;;;;;;;3.37;3.08;;;;;;;14.17;100.00;91884.98;1669405;82;21521;-77
2021/08/06 00:26:57;;;;;;;4.33;3.77;;;;;;;14.19;100.00;91873.61;1613451;83;21010;-76
2021/08/06 00:29:24;;;;;;;6.15;3.75;;;;;;;14.17;100.00;91874.05;1621480;83;21105;-78
2021/08/06 00:31:52;;;;;;;4.33;3.92;;;;;;;14.13;100.00;91878.91;1683262;81;21769;-77
2021/08/06 00:34:20;;;;;;;5.70;3.60;;;;;;;14.11;100.00;91870.41;1686690;81;21665;-77
2021/08/06 00:36:48;;;;;;;2.65;2.50;;;;;;;14.12;100.00;91873.91;1631234;83;21089;-76
2021/08/06 00:39:15;;;;;;;5.58;3.02;;;;;;;14.15;100.00;91873.00;1643265;83;21062;-76
2021/08/06 00:41:42;;;;;;;3.33;2.83;;;;;;;14.13;100.00;91867.97;1672219;83;21101;-77
2021/08/06 00:44:10;;;;;;;5.92;3.10;;;;;;;14.11;100.00;91864.95;1658285;83;21286;-77
2021/08/06 00:46:37;;;;;;;3.00;2.80;;;;;;;14.11;100.00;91867.69;1624856;83;21304;-77
2021/08/06 00:49:04;;;;;;;2.37;2.20;;;;;;;14.11;100.00;91856.00;1666667;83;21089;-77
2021/08/06 00:51:32;;;;;;;5.87;3.30;;;;;;;14.08;100.00;91854.31;1646124;82;21077;-78
2021/08/06 00:53:59;;;;;;;5.70;3.47;;;;;;;14.11;100.00;91862.22;1662038;83;21114;-78
2021/08/06 00:56:28;;;;;;;5.45;3.40;;;;;;;14.16;100.00;91860.84;1667563;82;21064;-76
2021/08/06 00:58:57;;;;;;;3.47;2.60;;;;;;;14.21;100.00;91865.70;1730653;81;21056;-78
2021/08/06 01:01:26;;;;;;;4.00;2.80;;;;;;;14.23;100.00;91857.20;1627117;82;21636;-77
2021/08/06 01:04:09;;;;;;;3.75;3.15;;;;;;;14.26;100.00;91855.54;1709075;81;21077;-77
2021/08/06 01:07:02;;;;;;;4.40;2.98;;;;;;;14.25;100.00;91862.95;1703145;82;21109;-76
2021/08/06 01:09:47;;;;;;;3.10;2.72;;;;;;;14.18;100.00;91860.55;1681811;83;21077;-78
2021/08/06 01:12:29;;;;;;;2.77;2.58;;;;;;;14.15;100.00;91860.09;1652200;83;21069;-77
2021/08/06 01:15:00;;;;;;;3.65;2.92;;;;;;;14.16;100.00;91850.66;1733837;80;21107;-75
2021/08/06 01:17:31;;;;;;;2.62;2.42;;;;;;;14.17;100.00;91855.52;1701004;80;21075;-77
2021/08/06 01:20:11;;;;;;;3.47;2.90;;;;;;;14.17;100.00;91847.33;1694316;80;21103;-79
2021/08/06 01:23:06;;;;;;;2.52;2.30;;;;;;;14.12;100.00;91845.20;1670433;80;21298;-76
2021/08/06 01:25:50;;;;;;;3.25;2.75;;;;;;;14.11;100.00;91838.98;1712131;81;21044;-76
2021/08/06 01:28:31;;;;;;;3.50;2.37;;;;;;;14.17;100.00;91847.33;1702515;81;21079;-77
2021/08/06 01:30:59;;;;;;;4.03;2.10;;;;;;;14.21;100.00;91838.36;1713478;81;21708;-75
2021/08/06 01:33:28;;;;;;;2.40;2.20;;;;;;;14.25;100.00;91822.56;1740502;80;21107;-76
2021/08/06 01:35:55;;;;;;;2.30;2.10;;;;;;;14.26;100.00;91819.39;1666645;80;21152;-76
2021/08/06 01:38:23;;;;;;;2.70;2.50;;;;;;;14.28;100.00;91818.92;1672363;81;21113;-77
2021/08/06 01:41:21;;;;;;;3.02;2.83;;;;;;;14.39;100.00;91823.31;1717333;80;21017;-76
2021/08/06 01:44:07;;;;;;;2.80;2.55;;;;;;;14.45;100.00;91827.58;1738549;80;21127;-76
2021/08/06 01:46:39;;;;;;;3.50;2.02;;;;;;;14.44;100.00;91817.25;1714236;80;21053;-75
2021/08/06 01:49:11;;;;;;;3.75;2.47;;;;;;;14.48;100.00;91814.33;1708717;80;21093;-78
2021/08/06 01:51:42;;;;;;;3.30;2.50;;;;;;;14.53;100.00;91813.15;1741319;80;21072;-77
2021/08/06 01:54:10;;;;;;;4.95;3.30;;;;;;;14.56;100.00;91819.08;1741851;80;20934;-77
2021/08/06 01:56:41;;;;;;;2.72;2.52;;;;;;;14.56;100.00;91822.42;1690963;81;21491;-77
2021/08/06 01:59:08;;;;;;;4.42;2.55;;;;;;;14.56;100.00;91821.05;1711245;80;21132;-77
2021/08/06 02:01:38;;;;;;;2.30;2.20;;;;;;;14.55;100.00;91816.20;1703396;82;21849;-77
2021/08/06 02:04:07;;;;;;;2.90;2.65;;;;;;;14.57;100.00;91818.47;1704086;82;21303;-77
2021/08/06 02:06:35;;;;;;;3.00;2.70;;;;;;;14.57;100.00;91810.26;1708551;82;21024;-77
2021/08/06 02:09:04;;;;;;;2.33;2.12;;;;;;;14.59;100.00;91809.17;1708359;81;21591;-77
2021/08/06 02:11:34;;;;;;;2.67;2.47;;;;;;;14.60;100.00;91810.72;1667894;82;21096;-77
2021/08/06 02:14:01;;;;;;;2.20;2.10;;;;;;;14.58;100.00;91815.26;1728123;80;21087;-77
2021/08/06 02:16:30;;;;;;;2.33;2.12;;;;;;;14.55;100.00;91818.94;1740029;80;21784;-76
2021/08/06 02:18:58;;;;;;;2.65;2.45;;;;;;;14.53;100.00;91815.13;1744547;80;21103;-76
2021/08/06 02:21:27;;;;;;;2.60;2.40;;;;;;;14.51;100.00;91813.45;1723439;80;21620;-77
2021/08/06 02:23:55;;;;;;;3.00;2.10;;;;;;;14.47;100.00;91812.83;1739639;81;21640;-77
2021/08/06 02:26:24;;;;;;;4.28;3.52;;;;;;;14.40;100.00;91806.30;1744646;80;21542;-77
2021/08/06 02:28:53;;;;;;;2.72;2.45;;;;;;;14.37;100.00;91811.30;1713198;80;21097;-77
2021/08/06 02:31:22;;;;;;;3.52;3.22;;;;;;;14.36;100.00;91795.52;1740254;80;21379;-77
2021/08/06 02:33:49;;;;;;;2.47;2.27;;;;;;;14.34;100.00;91805.55;1701213;80;21078;-77
2021/08/06 02:36:17;;;;;;;3.95;2.83;;;;;;;14.34;100.00;91804.80;1718142;80;21112;-77
2021/08/06 02:38:44;;;;;;;3.17;2.33;;;;;;;14.34;100.00;91804.19;1715482;80;21550;-77
2021/08/06 02:41:10;;;;;;;2.37;2.17;;;;;;;14.36;100.00;91799.61;1733964;80;21289;-77
2021/08/06 02:43:40;;;;;;;2.58;2.40;;;;;;;14.39;100.00;91798.70;1707786;81;21089;-78
2021/08/06 02:46:07;;;;;;;2.12;1.95;;;;;;;14.42;100.00;91799.77;1735855;80;21057;-77
2021/08/06 02:48:35;;;;;;;2.70;2.10;;;;;;;14.45;100.00;91790.66;1691640;80;21359;-78
2021/08/06 02:51:03;;;;;;;2.02;1.90;;;;;;;14.54;100.00;91783.20;1716257;80;22297;-78
2021/08/06 02:53:30;;;;;;;3.02;1.98;;;;;;;14.64;100.00;91786.69;1712758;80;21053;-80
2021/08/06 02:55:57;;;;;;;1.80;1.70;;;;;;;14.74;100.00;91798.35;1725772;80;21334;-78
2021/08/06 02:58:26;;;;;;;2.87;2.10;;;;;;;14.79;100.00;91792.28;1695917;81;38541;-80
2021/08/06 03:00:53;;;;;;;3.80;2.27;;;;;;;14.85;99.44;91801.97;1751837;80;21143;-79
2021/08/06 03:03:20;;;;;;;3.05;2.05;;;;;;;14.90;98.53;91800.00;1695310;80;21052;-84
2021/08/06 03:05:46;;;;;;;2.40;2.00;;;;;;;14.93;97.56;91797.09;1687100;80;21133;-81
2021/08/06 03:08:13;;;;;;;1.67;1.57;;;;;;;14.97;97.60;91807.86;1739828;80;21075;-83
2021/08/06 03:10:40;;;;;;;1.55;1.45;;;;;;;14.96;96.41;91797.52;1685829;80;21040;-83
2021/08/06 03:13:08;;;;;;;1.70;1.60;;;;;;;14.97;94.18;91802.38;1735725;80;21075;-81
2021/08/06 03:15:35;;;;;;;1.40;1.30;;;;;;;15.04;93.52;91794.63;1691713;82;21069;-78
2021/08/06 03:18:02;;;;;;;1.32;1.25;;;;;;;15.11;92.90;91796.25;1672827;80;21084;-85
2021/08/06 03:20:30;;;;;;;1.60;1.50;;;;;;;15.18;92.65;91798.66;1724898;80;21088;-80
2021/08/06 03:22:58;;;;;;;1.72;1.22;;;;;;;15.22;92.94;91801.98;1668306;81;21084;-81
2021/08/06 03:25:25;;;;;;;1.25;1.20;;;;;;;15.25;93.57;91797.56;1722935;80;21052;-83
2021/08/06 03:27:55;;;;;;;1.47;1.37;;;;;;;15.26;92.83;91797.70;1713345;81;21049;-86
2021/08/06 03:30:24;;;;;;;2.22;1.42;;;;;;;15.29;93.00;91795.42;1700014;80;21076;-85
2021/08/06 03:32:50;;;;;;;2.37;1.62;;;;;;;15.33;92.75;91797.98;1705377;82;21045;-81
2021/08/06 03:35:16;;;;;;;1.90;1.75;;;;;;;15.36;92.39;91796.45;1627520;84;21037;-82
2021/08/06 03:37:43;;;;;;;2.12;1.70;;;;;;;15.38;93.65;91798.09;1655700;83;21065;-88
2021/08/06 03:40:12;;;;;;;1.30;1.20;;;;;;;15.34;90.16;91789.91;1722171;80;21062;-85
2021/08/06 03:42:39;;;;;;;2.20;1.70;;;;;;;15.36;89.48;91798.44;1720430;80;21080;-80
2021/08/06 03:45:07;;;;;;;1.65;1.55;;;;;;;15.40;88.88;91797.65;1672753;82;21016;-83
2021/08/06 03:47:37;;;;;;;1.87;1.50;;;;;;;15.41;88.99;91802.65;1713482;81;21097;-82
2021/08/06 03:50:07;;;;;;;1.65;1.55;;;;;;;15.39;88.37;91796.89;1690653;81;21087;-83
2021/08/06 03:52:34;;;;;;;2.98;1.72;;;;;;;15.41;87.40;91801.28;1673435;81;21733;-79
2021/08/06 03:55:01;;;;;;;1.98;1.85;;;;;;;15.45;87.13;91795.63;1685936;82;21548;-80
2021/08/06 03:57:29;;;;;;;2.35;1.60;;;;;;;15.45;87.56;91800.50;1642753;82;21112;-79
2021/08/06 03:59:55;;;;;;;2.45;1.70;;;;;;;15.45;88.66;91786.80;1639851;83;21609;-81
2021/08/06 04:02:22;;;;;;;1.32;1.30;;;;;;;15.42;88.61;91774.06;1656359;84;21632;-85
2021/08/06 04:04:49;;;;;;;1.80;1.60;;;;;;;15.39;89.07;91776.97;1657598;83;21068;-80
2021/08/06 04:07:15;;;;;;;2.62;1.90;;;;;;;15.31;89.48;91758.75;1650592;84;21096;-81
2021/08/06 04:09:42;;;;;;;2.05;1.82;;;;;;;15.25;90.08;91754.52;1613753;86;21117;-81
2021/08/06 04:12:09;;;;;;;2.87;1.42;;;;;;;15.20;89.39;91744.20;1630047;84;21065;-78
2021/08/06 04:14:38;;;;;;;1.40;1.30;;;;;;;15.16;89.72;91762.78;1602325;85;21114;-80
2021/08/06 04:17:05;;;;;;;1.55;1.45;;;;;;;15.11;90.34;91740.13;1644984;85;21177;-77
2021/08/06 04:19:33;;;;;;;1.60;1.50;;;;;;;15.06;90.22;91736.67;1623120;86;21606;-81
2021/08/06 04:22:00;;;;;;;2.02;1.77;;;;;;;15.06;90.52;91733.32;1647835;84;22246;-86
2021/08/06 04:24:28;;;;;;;1.75;1.65;;;;;;;15.08;90.57;91736.20;1632485;85;21109;-80
2021/08/06 04:26:56;;;;;;;3.72;1.40;;;;;;;15.05;91.06;91733.80;1661017;83;21076;-81
2021/08/06 04:29:23;;;;;;;0.98;0.98;;;;;;;15.02;91.83;91737.45;1709051;81;21104;-78
2021/08/06 04:31:49;;;;;;;1.15;1.15;;;;;;;15.01;91.88;91731.84;1683434;83;20973;-80
2021/08/06 04:34:16;;;;;;;1.60;1.50;;;;;;;14.99;91.12;91740.50;1690842;82;21574;-83
2021/08/06 04:36:43;;;;;;;1.42;1.32;;;;;;;15.01;91.02;91738.06;1674584;81;21024;-77
2021/08/06 04:39:10;;;;;;;1.95;1.45;;;;;;;15.05;90.39;91750.97;1672214;82;21104;-82
2021/08/06 04:41:37;;;;;;;1.87;1.70;;;;;;;15.06;89.91;91741.53;1666510;83;21152;-79
2021/08/06 04:44:03;;;;;;;1.50;1.40;;;;;;;15.08;89.86;91761.58;1676000;81;21074;-78
2021/08/06 04:46:30;;;;;;;1.42;1.32;;;;;;;15.09;90.13;91741.22;1658297;82;21917;-84
2021/08/06 04:48:57;;;;;;;1.45;1.20;;;;;;;15.09;89.18;91721.31;1665666;83;21891;-81
2021/08/06 04:51:24;;;;;;;1.37;1.27;;;;;;;15.11;88.62;91747.59;1601260;84;21579;-88
2021/08/06 04:53:50;;;;;;;2.50;1.12;;;;;;;15.13;88.95;91730.86;1662694;84;21146;-77
2021/08/06 04:56:17;;;;;;;1.12;1.10;;;;;;;15.13;88.88;91719.16;1619688;82;21100;-83
2021/08/06 04:58:43;;;;;;;1.50;1.40;;;;;;;15.10;88.87;91742.73;1709179;81;21044;-80
2021/08/06 05:01:11;;;;;;;3.70;1.50;;;;;;;15.11;88.80;91729.80;1683384;83;21087;-84
2021/08/06 05:03:38;;;;;;;1.45;1.35;;;;;;;15.13;87.68;91717.17;1676803;83;21104;-81
2021/08/06 05:06:04;;;;;;;2.87;1.62;;;;;;;15.17;87.09;91725.97;1726079;80;21721;-80
2021/08/06 05:08:32;;;;;;;4.30;1.35;;;;;;;15.19;84.85;91727.61;1684087;83;21092;-82
2021/08/06 05:10:59;;;;;;;1.87;1.27;;;;;;;15.25;83.91;91718.92;1703546;81;21069;-78
2021/08/06 05:13:26;;;;;;;3.75;1.57;;;;;;;15.30;84.13;91721.63;1676278;83;21061;-81
2021/08/06 05:15:54;;;;;;;1.62;1.20;;;;;;;15.33;84.72;91719.94;1707227;82;21077;-82
2021/08/06 05:18:21;;;;;;;1.55;1.45;;;;;;;15.33;84.94;91724.05;1681585;82;21743;-82
2021/08/06 05:20:47;;;;;;;1.22;1.22;;;;;;;15.33;84.37;91735.76;1684583;82;21074;-77
2021/08/06 05:23:14;;;;;;;1.50;1.40;;;;;;;15.36;85.83;91745.78;1667454;83;21137;-81
2021/08/06 05:25:40;;;;;;;1.17;1.07;;;;;;;15.37;85.47;91754.14;1675064;83;21286;-77
2021/08/06 05:28:09;;;;;;;1.00;1.00;;;;;;;15.38;85.89;91753.52;1690033;82;21050;-81
2021/08/06 05:30:36;;;;;;;1.10;1.07;;;;;;;15.38;85.55;91759.00;1655096;83;21162;-74
2021/08/06 05:33:04;;;;;;;1.20;1.10;;;;;;;15.37;84.47;91773.92;1670947;82;21097;-83
2021/08/06 05:35:31;;;;;;;2.10;1.67;;;;;;;15.34;83.58;91759.17;1707264;81;21099;-78
2021/08/06 05:38:00;;;;;;;1.40;1.30;;;;;;;15.40;84.64;91770.27;1657352;82;21072;-80
2021/08/06 05:40:27;;;;;;;4.15;1.00;;;;;;;15.44;84.07;91774.95;1693342;81;21084;-81
2021/08/06 05:42:56;;;;;;;1.27;1.07;;;;;;;15.48;82.23;91778.27;1683799;83;21134;-77
2021/08/06 05:45:24;;;;;;;1.87;0.90;;;;;;;15.48;83.04;91761.84;1673197;82;21006;-81
2021/08/06 05:47:59;;;;;;;1.77;1.67;;;;;;;15.45;82.53;91796.39;1619876;83;21034;-82
2021/08/06 05:50:28;;;;;;;1.45;1.35;;;;;;;15.43;83.84;91803.58;1665282;83;21098;-86
2021/08/06 05:52:55;;;;;;;1.77;1.67;;;;;;;15.42;84.30;91815.73;1653098;83;21121;-84
2021/08/06 05:55:21;;;;;;;1.57;1.30;;;;;;;15.39;84.61;91826.27;1688561;82;21132;-81
2021/08/06 05:57:50;;;;;;;2.47;1.10;;;;;;;15.37;85.17;91826.71;1692121;81;21047;-85
2021/08/06 06:00:17;;;;;;;1.20;1.20;;;;;;;15.36;84.96;91828.55;1679227;82;21093;-84
2021/08/06 06:02:46;;;;;;;0.72;0.72;;;;;;;15.31;84.75;91838.17;1679306;82;21531;-93
2021/08/06 06:05:17;;;;;;;1.47;1.20;;;;;;;15.29;84.98;91852.92;1680679;82;21036;-86
2021/08/06 06:07:47;;;;;;;1.10;1.00;;;;;;;15.27;84.83;91846.55;1682073;82;21837;-84
2021/08/06 06:10:21;;;;;;;1.05;1.02;;;;;;;15.25;84.79;91857.80;1701280;81;21773;-78
2021/08/06 06:12:48;;;;;;;1.37;1.30;;;;;;;15.23;85.09;91854.76;1693897;81;21274;-79
2021/08/06 06:15:16;;;;;;;1.35;1.25;;;;;;;15.20;83.53;91870.77;1657789;82;22244;-84
2021/08/06 06:17:44;;;;;;;1.20;1.10;;;;;;;15.17;82.90;91866.20;1679521;82;21117;-81
2021/08/06 06:20:12;;;;;;;2.90;2.15;;;;;;;15.15;83.97;91871.37;1668823;82;21139;-78
2021/08/06 06:22:39;;;;;;;0.82;0.82;;;;;;;15.15;83.89;91859.80;1676311;82;21131;-80
2021/08/06 06:25:08;;;;;;;1.05;1.00;;;;;;;15.15;83.75;91868.63;1696160;81;21649;-83
2021/08/06 06:27:59;;;;;;;1.10;1.00;;;;;;;15.13;83.70;91865.61;1687583;81;21022;-82
2021/08/06 06:33:48;;;;;;;2.25;1.72;;;;;;;15.18;81.92;91862.23;1835094;76;22103;-78
2021/08/06 06:36:15;;;;;;;1.25;0.78;;;;;;;15.15;82.67;91880.34;1777305;78;21510;-84
2021/08/06 06:38:43;;;;;;;0.80;0.60;;;;;;;15.17;82.33;91875.17;1724952;79;22247;-79
2021/08/06 06:41:10;;;;;;;0.62;0.62;;;;;;;15.18;82.83;91875.93;1742945;79;21062;-84
2021/08/06 06:43:38;;;;;;;0.60;0.60;;;;;;;15.19;83.07;91885.66;1770003;78;21022;-81
2021/08/06 06:46:05;;;;;;;0.50;0.50;;;;;;;15.19;82.24;91874.09;1764266;78;21018;-81
2021/08/06 06:48:32;;;;;;;1.02;0.68;;;;;;;15.18;82.41;91882.77;1738652;79;21109;-84
2021/08/06 06:50:59;;;;;;;2.00;0.90;;;;;;;15.15;82.67;91889.92;1744052;79;22001;-88
2021/08/06 06:58:52;;;;;;;1.32;0.50;;;;;;;15.20;82.72;91918.67;1827611;76;21714;-80
2021/08/06 07:01:19;;;;;;;0.65;0.62;;;;;;;15.12;82.74;91913.34;1750956;77;21086;-79
2021/08/06 07:03:48;;;;;;;0.50;0.50;;;;;;;15.10;83.67;91917.92;1679157;83;21534;-88
2021/08/06 07:06:20;;;;;;;0.62;0.60;;;;;;;15.07;84.57;91932.53;1641846;82;21113;-83
2021/08/06 07:08:47;;;;;;;0.40;0.40;;;;;;;15.05;84.94;91943.19;1708939;82;21149;-81
2021/08/06 07:11:16;;;;;;;0.60;0.42;;;;;;;14.99;85.14;91962.80;1685493;82;21147;-84
2021/08/06 07:13:43;;;;;;;0.75;0.75;;;;;;;14.87;83.17;91949.44;1696737;82;21108;-77
2021/08/06 07:16:10;;;;;;;1.50;1.10;;;;;;;14.73;83.59;91941.23;1645206;83;22201;-79
2021/08/06 07:18:37;;;;;;;0.68;0.68;;;;;;;14.67;84.52;91939.55;1621186;84;21108;-78
2021/08/06 07:21:05;;;;;;;1.00;0.75;;;;;;;14.65;84.57;91947.47;1606595;85;21098;-86
2021/08/06 07:23:31;;;;;;;0.65;0.57;;;;;;;14.65;84.68;91926.95;1612624;84;21118;-77
2021/08/06 07:25:58;;;;;;;0.65;0.65;;;;;;;14.68;83.62;91944.59;1568988;84;21074;-83
2021/08/06 07:28:24;;;;;;;0.70;0.60;;;;;;;14.73;82.35;91917.98;1685190;82;21149;-82
2021/08/06 07:30:51;;;;;;;1.92;0.47;;;;;;;14.80;80.55;91901.86;1677543;82;21134;-76
2021/08/06 07:33:18;;;;;;;2.98;1.27;;;;;;;14.85;80.28;91922.37;1657968;82;21111;-82
2021/08/06 07:35:45;;;;;;;0.75;0.60;;;;;;;14.81;78.32;91933.47;1658631;82;21606;-77
2021/08/06 07:38:13;;;;;;;0.60;0.30;;;;;;;14.80;78.26;91926.48;1640713;82;21177;-85
2021/08/06 07:40:40;;;;;;;0.40;0.40;;;;;;;14.78;78.63;91914.64;1698891;82;21778;-81
2021/08/06 07:43:08;;;;;;;0.45;0.40;;;;;;;14.78;78.87;91907.02;1701516;79;21603;-92
2021/08/06 07:45:34;;;;;;;0.50;0.40;;;;;;;14.77;79.36;91942.45;1743056;79;21050;-84
2021/08/06 07:49:41;;;;;;;2.05;0.40;;;;;;;14.84;79.41;91923.59;1825765;77;22306;-78
2021/08/06 07:54:37;;;;;;;0.90;0.35;;;;;;;14.85;78.46;91916.90;1781349;78;21247;-83
2021/08/06 07:57:04;;;;;;;0.75;0.28;;;;;;;14.86;79.21;91912.36;1779206;78;21044;-83
2021/08/06 07:59:30;;;;;;;0.70;0.70;;;;;;;14.93;78.50;91916.73;1732303;78;21064;-85
2021/08/06 08:01:58;;;;;;;0.35;0.35;;;;;;;15.00;78.45;91916.42;1777275;78;20959;-83
2021/08/06 08:04:25;;;;;;;0.30;0.30;;;;;;;15.08;77.58;91910.77;1810799;78;21028;-84
2021/08/06 08:06:53;;;;;;;0.62;0.30;;;;;;;15.17;77.55;91920.34;1756961;78;21072;-87
2021/08/06 08:09:21;;;;;;;1.10;0.50;;;;;;;15.26;77.64;91919.55;1760523;78;20874;-77
2021/08/06 08:11:48;;;;;;;0.75;0.42;;;;;;;15.35;77.65;91925.64;1753088;78;21072;-82
2021/08/06 08:14:15;;;;;;;0.20;0.20;;;;;;;15.41;77.07;91929.25;1780947;78;21661;-79
2021/08/06 08:16:44;;;;;;;0.33;0.33;;;;;;;15.41;77.44;91934.73;1783059;78;21111;-80
2021/08/06 08:19:11;;;;;;;0.45;0.40;;;;;;;15.39;77.02;91935.81;1742970;78;22310;-84
2021/08/06 08:21:39;;;;;;;0.42;0.20;;;;;;;15.38;77.32;91950.70;1758807;78;21070;-82
2021/08/06 08:24:06;;;;;;;0.13;0.13;;;;;;;15.39;78.57;91941.30;1785532;77;21802;-83
2021/08/06 08:26:34;;;;;;;0.30;0.30;;;;;;;15.42;79.79;91937.61;1780749;78;21045;-80
2021/08/06 08:29:01;;;;;;;0.30;0.30;;;;;;;15.44;80.60;91936.55;1807811;78;21061;-80
2021/08/06 08:31:29;;;;;;;0.90;0.37;;;;;;;15.46;80.84;91945.83;1743228;78;21123;-79
2021/08/06 08:33:55;;;;;;;0.62;0.62;;;;;;;15.45;79.65;91938.06;1779078;78;21898;-83
2021/08/06 08:36:22;;;;;;;0.20;0.20;;;;;;;15.45;79.61;91937.45;1761792;77;21049;-77
2021/08/06 08:38:52;;;;;;;0.20;0.20;;;;;;;15.48;80.21;91939.88;1752701;78;21995;-81
2021/08/06 08:41:20;;;;;;;5.50;1.32;;;;;;;15.53;80.50;91939.24;1781722;78;20987;-84
2021/08/06 08:43:47;;;;;;;0.45;0.30;;;;;;;15.56;80.18;91946.55;1761303;78;21135;-81
2021/08/06 08:46:17;;;;;;;0.20;0.20;;;;;;;15.64;80.11;91955.95;1751748;80;21093;-84
2021/08/06 08:48:47;;;;;;;0.47;0.10;;;;;;;15.71;79.37;91957.02;1745757;79;21780;-81
2021/08/06 08:51:13;;;;;;;0.30;0.30;;;;;;;15.79;79.21;91949.98;1726256;80;21109;-81
2021/08/06 08:53:40;;;;;;;0.13;0.10;;;;;;;15.90;79.70;91948.11;1724648;80;21109;-75
2021/08/06 08:56:06;;;;;;;0.10;0.10;;;;;;;16.08;79.49;91945.89;1688163;81;21089;-78
2021/08/06 08:58:33;;;;;;;1.87;0.75;;;;;;;16.21;78.71;91946.44;1674917;81;21372;-78
2021/08/06 09:01:01;;;;;;;0.53;0.50;;;;;;;16.30;75.66;91943.48;1695253;81;21101;-78
2021/08/06 09:03:46;;;;;;;8.93;3.17;;;;;;;16.31;76.96;91940.27;1703247;81;21646;-80
2021/08/06 09:06:16;;;;;;;0.50;0.50;;;;;;;16.33;76.66;91944.69;1707792;81;21123;-84
2021/08/06 09:08:44;;;;;;;0.25;0.25;;;;;;;16.32;77.73;91954.13;1689557;81;21056;-80
2021/08/06 09:11:32;;;;;;;0.53;0.10;;;;;;;16.27;75.54;91941.81;1747827;79;21092;-82
2021/08/06 09:14:26;;;;;;;1.67;0.20;;;;;;;16.21;76.14;91960.16;1739035;80;21571;-79
2021/08/06 09:17:13;;;;;;;0.10;0.10;;;;;;;16.15;75.96;91960.63;1744825;80;21032;-85
2021/08/06 09:19:44;;;;;;;1.55;0.30;;;;;;;16.08;74.69;91969.20;1764272;77;21059;-84
2021/08/06 09:22:21;;;;;;;0.30;0.30;;;;;;;16.00;75.61;91968.02;1707146;79;21547;-82
2021/08/06 09:25:07;;;;;;;0.17;0.17;;;;;;;15.99;75.21;91988.45;1793439;76;21125;-79
2021/08/06 09:27:37;;;;;;;;;;;;;;;15.95;75.44;91985.87;1768854;76;21041;-77
2021/08/06 09:30:16;;;;;;;0.10;0.10;;;;;;;15.92;75.67;91983.30;1764452;76;20377;-80
2021/08/06 09:32:54;;;;;;;0.10;0.10;;;;;;;15.86;75.85;91987.27;1795689;76;21080;-78
2021/08/06 09:35:29;;;;;;;0.28;0.15;;;;;;;15.72;76.43;91992.81;1757941;76;21362;-83
2021/08/06 09:37:56;;;;;;;1.00;0.50;;;;;;;15.65;78.39;91972.59;1749815;76;21547;-83
2021/08/06 09:40:31;;;;;;;0.20;0.20;;;;;;;15.60;79.21;91975.91;1809898;77;21046;-82
2021/08/06 09:43:00;;;;;;;;;;;;;;;15.57;79.77;91983.70;1762347;77;21029;-79
2021/08/06 09:45:29;;;;;;;0.10;0.10;;;;;;;15.55;80.75;91988.87;1796767;77;20680;-83
2021/08/06 09:47:56;;;;;;;1.12;0.40;;;;;;;15.49;79.40;91988.72;1761431;78;21017;-84
2021/08/06 09:50:28;;;;;;;4.72;1.50;;;;;;;15.41;79.90;91982.66;1772822;77;21028;-88
2021/08/06 09:52:55;;;;;;;0.70;0.60;;;;;;;15.37;80.56;91983.43;1778153;77;21098;-90
2021/08/06 09:55:34;;;;;;;1.12;0.80;;;;;;;15.33;82.00;91978.72;1777786;77;21042;-78
2021/08/06 09:58:07;;;;;;;1.25;1.15;;;;;;;15.28;83.20;91992.43;1772286;77;21808;-75
2021/08/06 10:00:37;;;;;;;1.12;0.40;;;;;;;15.25;82.86;91984.52;1799157;77;21078;-83
2021/08/06 10:03:06;;;;;;;1.02;0.42;;;;;;;15.23;82.18;91992.45;1776272;77;21130;-84
2021/08/06 10:05:35;;;;;;;0.47;0.40;;;;;;;15.16;82.36;92010.55;1778906;78;21015;-85
2021/08/06 10:08:05;;;;;;;0.80;0.80;;;;;;;15.12;81.94;92009.95;1749210;79;21807;-85
2021/08/06 10:10:36;;;;;;;2.05;0.85;;;;;;;15.04;82.76;92009.50;1761581;79;21112;-83
2021/08/06 10:13:03;;;;;;;1.37;1.20;;;;;;;14.98;83.18;92013.30;1718727;78;21109;-83
2021/08/06 10:15:37;;;;;;;0.70;0.47;;;;;;;14.94;84.16;92016.80;1728016;77;21025;-83
2021/08/06 10:18:07;;;;;;;0.88;0.80;;;;;;;14.89;84.58;92019.52;1783587;77;21209;-79
2021/08/06 10:20:37;;;;;;;1.50;1.40;;;;;;;14.81;84.68;92019.05;1758357;78;21073;-81
2021/08/06 10:23:05;;;;;;;1.00;1.00;;;;;;;14.69;83.79;92038.36;1763638;77;21045;-82
2021/08/06 10:25:34;;;;;;;0.68;0.60;;;;;;;14.64;83.54;92037.61;1767059;78;21019;-86
2021/08/06 10:28:03;;;;;;;0.85;0.40;;;;;;;14.64;83.94;92060.24;1713660;78;21076;-85
2021/08/06 10:30:34;;;;;;;0.47;0.47;;;;;;;14.60;82.77;92039.73;1761234;77;21159;-84
2021/08/06 10:33:20;;;;;;;0.62;0.62;;;;;;;14.48;83.29;92035.27;1728187;77;21053;-83
2021/08/06 10:35:49;;;;;;;2.05;0.53;;;;;;;14.45;84.02;92041.64;1686337;80;20959;-80
2021/08/06 10:38:35;;;;;;;0.85;0.85;;;;;;;14.49;85.21;92044.23;1672715;80;21638;-82
2021/08/06 10:41:15;;;;;;;0.90;0.90;;;;;;;14.52;85.80;92059.16;1748873;79;21139;-77
2021/08/06 10:44:03;;;;;;;1.02;0.70;;;;;;;14.60;85.63;92064.34;1750862;77;21045;-77
2021/08/06 10:46:28;;;;;;;0.90;0.90;;;;;;;14.65;85.63;92080.91;1697734;78;21060;-81
2021/08/06 10:48:55;;;;;;;0.70;0.70;;;;;;;14.65;84.47;92079.54;1754786;78;21113;-84
2021/08/06 10:51:30;;;;;;;1.30;1.20;;;;;;;14.63;84.29;92090.19;1732688;77;21228;-82
2021/08/06 10:54:06;;;;;;;2.58;2.37;;;;;;;14.62;83.43;92087.28;1783696;77;21363;-85
2021/08/06 10:56:37;;;;;;;1.00;0.88;;;;;;;14.63;83.14;92089.41;1778175;77;21097;-82
2021/08/06 10:59:11;;;;;;;0.82;0.82;;;;;;;14.65;82.84;92071.33;1781462;78;20987;-86
2021/08/06 11:01:50;;;;;;;0.95;0.95;;;;;;;14.70;83.47;92073.45;1732591;77;21618;-74
2021/08/06 11:04:23;;;;;;;0.60;0.60;;;;;;;14.82;83.49;92081.41;1686437;81;21089;-88
2021/08/06 11:06:54;;;;;;;0.85;0.85;;;;;;;14.92;82.71;92076.69;1754226;78;21066;-80
2021/08/06 11:09:37;;;;;;;0.60;0.60;;;;;;;15.03;82.55;92083.84;1803010;77;21097;-84
2021/08/06 11:12:14;;;;;;;0.62;0.62;;;;;;;15.18;82.53;92084.77;1803101;77;21015;-84
2021/08/06 11:14:49;;;;;;;0.50;0.50;;;;;;;15.30;80.49;92094.04;1761187;77;21091;-86
2021/08/06 11:17:23;;;;;;;0.65;0.40;;;;;;;15.38;80.83;92074.70;1762450;79;21066;-86
2021/08/06 11:20:09;;;;;;;2.00;0.72;;;;;;;15.46;79.74;92084.16;1695182;79;21051;-84
2021/08/06 11:22:38;;;;;;;1.10;0.72;;;;;;;15.52;80.10;92084.30;1741979;78;21053;-82
2021/08/06 11:25:19;;;;;;;0.55;0.55;;;;;;;15.55;79.68;92081.40;1763088;80;21043;-81
2021/08/06 11:27:59;;;;;;;1.00;0.90;;;;;;;15.62;80.41;92089.16;1737654;80;20979;-83
2021/08/06 11:30:29;;;;;;;0.90;0.90;;;;;;;15.66;80.70;92100.75;1768138;79;22169;-79
2021/08/06 11:32:59;;;;;;;0.90;0.90;;;;;;;15.71;80.18;92087.18;1738566;80;20930;-80
2021/08/06 11:35:36;;;;;;;0.55;0.55;;;;;;;15.72;79.17;92091.46;1755423;80;20978;-89
2021/08/06 11:38:11;;;;;;;0.30;0.30;;;;;;;15.72;76.74;92094.20;1731650;78;21039;-82
2021/08/06 11:40:39;;;;;;;0.62;0.60;;;;;;;15.69;77.09;92084.77;1791127;76;21480;-80
2021/08/06 11:43:17;;;;;;;1.45;0.40;;;;;;;15.72;76.86;92075.61;1776497;77;21345;-84
2021/08/06 11:45:45;;;;;;;1.77;1.57;;;;;;;15.68;76.27;92084.59;1769807;76;20990;-85
2021/08/06 11:48:12;;;;;;;1.00;0.62;;;;;;;15.66;77.32;92092.53;1723004;76;20907;-87
2021/08/06 11:51:08;;;;;;;2.08;0.93;;;;;;;15.71;78.52;92098.14;1777657;77;20979;-89
2021/08/06 11:53:28;;;;;;;1.65;0.60;;;;;;;15.73;77.81;92106.67;1790617;76;20994;-85
2021/08/06 11:55:57;;;;;;;0.60;0.60;;;;;;;15.74;77.91;92089.62;1796542;77;21357;-82